Delavan, Wisconsin
Current Conditions -  °F | °C
As of 4:15 AM on Saturday 25 Oct 2014 (Local Time) from KBUU Reporting Station
Haze Haze  
Wind Chill: 54°   Ceiling: Unl
Heat Index: 54°   Visibility: 5mi
Dew Point: 53°   Wind: 7mph
Humidity: 95%   Direction: 270°W
Pressure: 29.88"   Gusts: NA
Location:  42.63°N, 88.65°W
Report Text: KBUU 250915Z AUTO 27006KT 5SM BR SCT011 12/12 A2988 RMK AO2 T01220115
Loading
Personal Weather Stations






























Interactive Weather Map
Tropical Storm Tracking
New forecast layout! Learn more

10-Day Weather Forecast

Advertisements
Track Severe Weather on mobile